Time;durP1;ratioP1;P1;durP2;ratioP2;P2;SDS_P1;SDS_P2;PMS_P1;PMS_P2;Temp;Humidity;BMP_temperature;BMP_pressure;BME280_temperature;BME280_humidity;BME280_pressure;Samples;Min_cycle;Max_cycle;Signal;HPM_P1;HPM_P2
2022/09/14 00:00:16;;;;;;;;;;;;;;;16.95;76.41;100765.88;5035687;28;20004;-79
2022/09/14 00:02:41;;;;;;;;;;;;;;;16.94;76.59;100768.72;5039778;28;19920;-80
2022/09/14 00:05:06;;;;;;;;;;;;;;;16.91;76.66;100758.31;5040796;28;19967;-79
2022/09/14 00:07:32;;;;;;;;;;;;;;;16.86;76.14;100757.97;5040465;28;19914;-78
2022/09/14 00:09:57;;;;;;;;;;;;;;;16.82;76.21;100752.06;5032174;28;19924;-79
2022/09/14 00:12:23;;;;;;;;;;;;;;;16.80;76.87;100752.22;5028484;28;19960;-79
2022/09/14 00:14:50;;;;;;;;;;;;;;;16.76;76.91;100744.63;5039523;28;19920;-80
2022/09/14 00:17:15;;;;;;;;;;;;;;;16.71;76.84;100752.31;5041602;28;19913;-77
2022/09/14 00:19:40;;;;;;;;;;;;;;;16.66;76.80;100750.13;5043361;28;19920;-79
2022/09/14 00:22:05;;;;;;;;;;;;;;;16.64;77.47;100754.81;5035978;28;19924;-79
2022/09/14 00:24:31;;;;;;;;;;;;;;;16.63;77.05;100755.78;5042882;28;19964;-79
2022/09/14 00:26:56;;;;;;;;;;;;;;;16.61;77.32;100757.81;5043221;28;19921;-80
2022/09/14 00:29:22;;;;;;;;;;;;;;;16.59;77.19;100755.28;5046153;28;20372;-79
2022/09/14 00:31:48;;;;;;;;;;;;;;;16.54;77.83;100760.28;5047273;28;20340;-80
2022/09/14 00:34:14;;;;;;;;;;;;;;;16.50;77.56;100756.22;5044870;28;19960;-79
2022/09/14 00:36:42;;;;;;;;;;;;;;;16.45;77.58;100748.66;5042341;28;19913;-79
2022/09/14 00:39:08;;;;;;;;;;;;;;;16.40;77.50;100742.94;5042566;28;19920;-79
2022/09/14 00:41:34;;;;;;;;;;;;;;;16.38;77.21;100742.25;5041473;28;19913;-80
2022/09/14 00:43:59;;;;;;;;;;;;;;;16.39;77.60;100735.06;5038020;28;19920;-78
2022/09/14 00:46:26;;;;;;;;;;;;;;;16.38;77.45;100742.25;5040612;28;19913;-79
2022/09/14 00:48:52;;;;;;;;;;;;;;;16.36;77.86;100735.38;5039374;28;19917;-80
2022/09/14 00:53:45;;;;;;;;;;;;;;;16.32;77.89;100718.78;5026264;28;19921;-48
2022/09/14 00:56:11;;;;;;;;;;;;;;;16.31;77.40;100711.72;5031363;28;19921;-51
2022/09/14 00:58:37;;;;;;;;;;;;;;;16.33;77.90;100707.03;5033125;28;19917;-50
2022/09/14 01:01:02;;;;;;;;;;;;;;;16.31;77.33;100697.50;5030770;28;19964;-50
2022/09/14 01:03:27;;;;;;;;;;;;;;;16.29;78.27;100692.28;5034168;28;19913;-51
2022/09/14 01:06:00;;;;;;;;;;;;;;;16.29;78.10;100697.66;5032204;28;20286;-49
2022/09/14 01:08:44;;;;;;;;;;;;;;;16.30;78.28;100698.47;5031673;28;20405;-50
2022/09/14 01:11:17;;;;;;;;;;;;;;;16.28;78.31;100687.91;5033537;28;19936;-52
2022/09/14 01:13:48;;;;;;;;;;;;;;;16.27;78.51;100687.06;5033330;28;19916;-52
2022/09/14 01:16:20;;;;;;;;;;;;;;;16.25;78.48;100682.88;5033173;28;20020;-50
2022/09/14 01:18:49;;;;;;;;;;;;;;;16.21;78.99;100684.19;5033563;28;19982;-50
2022/09/14 01:21:25;;;;;;;;;;;;;;;16.18;78.70;100679.97;5032474;28;19925;-52
2022/09/14 01:23:50;;;;;;;;;;;;;;;16.15;79.19;100688.31;5033821;28;19913;-51
2022/09/14 01:26:32;;;;;;;;;;;;;;;16.16;78.91;100689.19;5030538;28;19916;-53
2022/09/14 01:29:01;;;;;;;;;;;;;;;16.15;79.09;100691.00;5032031;28;19917;-51
2022/09/14 01:31:30;;;;;;;;;;;;;;;16.14;78.73;100701.88;5034360;28;20004;-53
2022/09/14 01:34:13;;;;;;;;;;;;;;;16.13;78.46;100690.34;5033102;28;19917;-53
2022/09/14 01:36:42;;;;;;;;;;;;;;;16.13;79.02;100695.69;5028243;28;20024;-54
2022/09/14 01:39:09;;;;;;;;;;;;;;;16.11;79.01;100688.81;5032764;28;19913;-51
2022/09/14 01:41:35;;;;;;;;;;;;;;;16.09;79.37;100692.50;5033836;28;20306;-54
2022/09/14 01:44:15;;;;;;;;;;;;;;;16.08;79.17;100695.31;5033496;28;19920;-53
2022/09/14 01:47:04;;;;;;;;;;;;;;;16.05;78.83;100685.78;5015227;28;19943;-50
2022/09/14 01:49:36;;;;;;;;;;;;;;;16.01;78.73;100683.56;5032933;28;19956;-53
2022/09/14 01:52:05;;;;;;;;;;;;;;;15.99;78.88;100672.19;5031660;28;19923;-52
2022/09/14 01:54:33;;;;;;;;;;;;;;;15.96;79.11;100672.47;5033944;28;19917;-52
2022/09/14 01:57:01;;;;;;;;;;;;;;;15.94;78.77;100675.31;5033873;28;19919;-52
2022/09/14 01:59:29;;;;;;;;;;;;;;;15.93;78.95;100670.94;5034008;28;20329;-53
2022/09/14 02:01:58;;;;;;;;;;;;;;;15.90;78.33;100674.78;5027584;28;19936;-53
2022/09/14 02:04:29;;;;;;;;;;;;;;;15.88;78.93;100670.56;5022726;28;19916;-51
2022/09/14 02:06:55;;;;;;;;;;;;;;;15.84;78.98;100669.22;5024731;28;19959;-51
2022/09/14 02:09:25;;;;;;;;;;;;;;;15.83;79.40;100667.53;5024277;28;19913;-53
2022/09/14 02:11:50;;;;;;;;;;;;;;;15.81;79.05;100672.22;5029925;28;19958;-54
2022/09/14 02:14:15;;;;;;;;;;;;;;;15.79;78.68;100671.53;5016743;28;19917;-53
2022/09/14 02:16:43;;;;;;;;;;;;;;;15.73;78.62;100673.78;5014051;28;19914;-51
2022/09/14 02:19:09;;;;;;;;;;;;;;;15.71;79.05;100672.25;5021937;28;20302;-53
2022/09/14 02:21:34;;;;;;;;;;;;;;;15.70;79.18;100673.25;5019565;28;19924;-53
2022/09/14 02:24:00;;;;;;;;;;;;;;;15.68;79.13;100670.72;5030097;28;20345;-52
2022/09/14 02:26:25;;;;;;;;;;;;;;;15.66;79.08;100672.72;5032048;28;19924;-51
2022/09/14 02:28:54;;;;;;;;;;;;;;;15.65;79.47;100675.56;5030435;28;20015;-53
2022/09/14 02:31:20;;;;;;;;;;;;;;;15.63;79.02;100669.53;5033572;28;19912;-51
2022/09/14 02:33:56;;;;;;;;;;;;;;;15.62;79.26;100679.41;5019597;28;19920;-52
2022/09/14 02:36:39;;;;;;;;;;;;;;;15.60;79.83;100678.69;5015278;28;19972;-52
2022/09/14 02:39:14;;;;;;;;;;;;;;;15.59;79.54;100679.69;5022556;28;20383;-51
2022/09/14 02:41:44;;;;;;;;;;;;;;;15.58;79.14;100679.84;5026679;28;19921;-54
2022/09/14 02:44:35;;;;;;;;;;;;;;;15.56;79.45;100677.31;5026559;28;19919;-54
2022/09/14 02:47:16;;;;;;;;;;;;;;;15.55;79.61;100672.97;5028177;28;19970;-52
2022/09/14 02:49:49;;;;;;;;;;;;;;;15.54;79.67;100665.94;5015045;28;20000;-51
2022/09/14 02:52:17;;;;;;;;;;;;;;;15.55;80.10;100670.28;5024252;28;20414;-53
2022/09/14 02:54:49;;;;;;;;;;;;;;;15.55;78.90;100667.59;5013505;28;19913;-51
2022/09/14 02:57:14;;;;;;;;;;;;;;;15.54;79.79;100658.75;5014163;28;19929;-52
2022/09/14 02:59:39;;;;;;;;;;;;;;;15.52;79.58;100660.75;5016679;28;19921;-53
2022/09/14 03:02:04;;;;;;;;;;;;;;;15.52;79.91;100659.88;5026308;28;19940;-54
2022/09/14 03:04:30;;;;;;;;;;;;;;;15.52;79.68;100651.84;5024309;28;19967;-53
2022/09/14 03:06:55;;;;;;;;;;;;;;;15.52;79.48;100657.19;5016275;28;19917;-51
2022/09/14 03:09:20;;;;;;;;;;;;;;;15.51;79.49;100651.00;5032974;28;20298;-53
2022/09/14 03:11:45;;;;;;;;;;;;;;;15.51;79.63;100650.19;5017886;28;20000;-51
2022/09/14 03:14:11;;;;;;;;;;;;;;;15.51;79.68;100642.16;5013430;28;20337;-52
2022/09/14 03:16:37;;;;;;;;;;;;;;;15.48;79.61;100645.13;5014282;28;19922;-53
2022/09/14 03:19:03;;;;;;;;;;;;;;;15.46;79.77;100645.28;5013405;28;19914;-52
2022/09/14 03:21:28;;;;;;;;;;;;;;;15.47;79.65;100646.97;5013605;28;19920;-51
2022/09/14 03:23:54;;;;;;;;;;;;;;;15.45;80.07;100642.75;5022030;28;19932;-52
2022/09/14 03:26:20;;;;;;;;;;;;;;;15.45;80.07;100643.59;5015612;28;19913;-51
2022/09/14 03:28:49;;;;;;;;;;;;;;;15.44;80.63;100639.25;5032592;28;19919;-52
2022/09/14 03:31:14;;;;;;;;;;;;;;;15.43;80.24;100629.53;5029143;28;19925;-52
2022/09/14 03:33:40;;;;;;;;;;;;;;;15.41;80.08;100631.53;5013205;28;20268;-52
2022/09/14 03:36:10;;;;;;;;;;;;;;;15.40;79.88;100629.00;5015028;28;19949;-51
2022/09/14 03:38:35;;;;;;;;;;;;;;;15.38;80.18;100628.31;5024177;28;20362;-53
2022/09/14 03:41:00;;;;;;;;;;;;;;;15.34;79.98;100620.59;5013285;28;19920;-55
2022/09/14 03:43:26;;;;;;;;;;;;;;;15.33;79.57;100623.44;5013095;28;19921;-54
2022/09/14 03:45:51;;;;;;;;;;;;;;;15.31;79.95;100614.72;5015731;28;19944;-53
2022/09/14 03:48:16;;;;;;;;;;;;;;;15.30;80.56;100613.84;5032107;28;20290;-50
2022/09/14 03:50:41;;;;;;;;;;;;;;;15.28;80.29;100609.66;5031853;28;19928;-54
2022/09/14 03:53:07;;;;;;;;;;;;;;;15.26;80.40;100612.50;5035364;28;19924;-53
2022/09/14 03:55:32;;;;;;;;;;;;;;;15.25;80.72;100610.81;5029925;28;19924;-52
2022/09/14 03:57:57;;;;;;;;;;;;;;;15.22;80.36;100613.81;5024530;28;20366;-49
2022/09/14 04:00:23;;;;;;;;;;;;;;;15.17;80.06;100602.72;5036211;28;20339;-55
2022/09/14 04:02:48;;;;;;;;;;;;;;;15.15;80.64;100604.69;5035547;28;19966;-54
2022/09/14 04:05:13;;;;;;;;;;;;;;;15.13;81.03;100602.19;5035732;28;20393;-51
2022/09/14 04:07:38;;;;;;;;;;;;;;;15.11;80.74;100598.81;5035870;28;19909;-54
2022/09/14 04:10:05;;;;;;;;;;;;;;;15.11;81.01;100603.34;5035556;28;19913;-52
2022/09/14 04:12:36;;;;;;;;;;;;;;;15.08;80.94;100599.13;5035098;28;20329;-52
2022/09/14 04:15:02;;;;;;;;;;;;;;;15.06;80.96;100598.44;5035379;28;20401;-52
2022/09/14 04:17:28;;;;;;;;;;;;;;;15.04;81.07;100595.09;5035216;28;19960;-51
2022/09/14 04:19:53;;;;;;;;;;;;;;;15.05;80.90;100598.59;5035339;28;19920;-51
2022/09/14 04:22:18;;;;;;;;;;;;;;;15.04;81.52;100602.25;5035686;28;20377;-51
2022/09/14 04:24:43;;;;;;;;;;;;;;;15.01;81.35;100599.91;5035594;28;20392;-54
2022/09/14 04:27:08;;;;;;;;;;;;;;;14.99;81.04;100595.53;5035133;28;19917;-54
2022/09/14 04:29:34;;;;;;;;;;;;;;;14.98;80.90;100593.84;5035172;28;19920;-53
2022/09/14 04:31:59;;;;;;;;;;;;;;;14.96;81.40;100593.16;5028050;28;19929;-54
2022/09/14 04:34:24;;;;;;;;;;;;;;;14.93;80.92;100589.97;5015844;28;19913;-54
2022/09/14 04:36:49;;;;;;;;;;;;;;;14.90;80.52;100585.75;5023924;28;20337;-55
2022/09/14 04:39:15;;;;;;;;;;;;;;;14.87;81.06;100585.22;5022462;28;19913;-52
2022/09/14 04:41:40;;;;;;;;;;;;;;;14.85;81.01;100588.03;5035606;28;19920;-53
2022/09/14 04:44:05;;;;;;;;;;;;;;;14.84;81.01;100580.16;5035378;28;20036;-55
2022/09/14 04:46:35;;;;;;;;;;;;;;;14.83;81.68;100583.84;5010424;28;20383;-50
2022/09/14 04:49:00;;;;;;;;;;;;;;;14.80;81.47;100577.81;5015483;28;19914;-50
2022/09/14 04:51:27;;;;;;;;;;;;;;;14.78;81.19;100573.59;5022975;28;20286;-52
2022/09/14 04:53:55;;;;;;;;;;;;;;;14.75;81.39;100581.91;5034430;28;20003;-50
2022/09/14 04:56:23;;;;;;;;;;;;;;;14.72;81.77;100572.38;5034541;28;19920;-49
2022/09/14 04:58:50;;;;;;;;;;;;;;;14.73;81.37;100571.38;5034815;28;20329;-49
2022/09/14 05:01:19;;;;;;;;;;;;;;;14.74;80.76;100569.56;5034507;28;19917;-49
2022/09/14 05:03:45;;;;;;;;;;;;;;;14.71;80.93;100565.34;5033956;28;19941;-49
2022/09/14 05:06:12;;;;;;;;;;;;;;;14.70;81.03;100557.47;5034784;28;20409;-51
2022/09/14 05:08:38;;;;;;;;;;;;;;;14.69;81.42;100561.13;5033100;28;19917;-51
2022/09/14 05:11:04;;;;;;;;;;;;;;;14.68;81.59;100556.78;5034337;28;19913;-50
2022/09/14 05:13:29;;;;;;;;;;;;;;;14.68;81.61;100556.78;5033421;28;19914;-49
2022/09/14 05:15:54;;;;;;;;;;;;;;;14.67;81.75;100552.44;5034161;28;19921;-50
2022/09/14 05:18:20;;;;;;;;;;;;;;;14.65;81.75;100555.25;5033501;28;20329;-49
2022/09/14 05:20:45;;;;;;;;;;;;;;;14.64;81.68;100558.06;5034386;28;19921;-49
2022/09/14 05:23:10;;;;;;;;;;;;;;;14.64;81.71;100558.06;5032301;28;19925;-49
2022/09/14 05:25:36;;;;;;;;;;;;;;;14.65;81.79;100559.75;5033646;28;19917;-49
2022/09/14 05:28:01;;;;;;;;;;;;;;;14.66;81.53;100564.13;5032504;28;20007;-50
2022/09/14 05:30:26;;;;;;;;;;;;;;;14.68;81.92;100570.16;5032943;28;19920;-51
2022/09/14 05:32:51;;;;;;;;;;;;;;;14.68;82.09;100562.97;5014843;28;20931;-51
2022/09/14 05:35:17;;;;;;;;;;;;;;;14.70;82.76;100560.16;5033753;28;20062;-50
2022/09/14 05:37:42;;;;;;;;;;;;;;;14.69;82.27;100564.66;5033547;28;20027;-50
2022/09/14 05:40:07;;;;;;;;;;;;;;;14.69;82.21;100564.66;5025040;28;20371;-51
2022/09/14 05:42:33;;;;;;;;;;;;;;;14.70;82.26;100560.16;5027731;28;19967;-51
2022/09/14 05:44:58;;;;;;;;;;;;;;;14.70;82.19;100565.50;5014269;28;19913;-50
2022/09/14 05:47:23;;;;;;;;;;;;;;;14.71;81.88;100569.88;5010131;28;19913;-50
2022/09/14 05:49:48;;;;;;;;;;;;;;;14.70;82.29;100570.84;5033712;28;19916;-49
2022/09/14 05:52:13;;;;;;;;;;;;;;;14.71;82.44;100575.22;5033250;28;19921;-49
2022/09/14 05:54:38;;;;;;;;;;;;;;;14.72;82.69;100576.88;5033398;28;20329;-50
2022/09/14 05:57:04;;;;;;;;;;;;;;;14.73;82.00;100573.22;5032831;28;19924;-51
2022/09/14 05:59:30;;;;;;;;;;;;;;;14.73;82.30;100574.03;5032655;28;20391;-50
2022/09/14 06:01:56;;;;;;;;;;;;;;;14.74;82.57;100572.25;5030348;28;19943;-50
2022/09/14 06:04:21;;;;;;;;;;;;;;;14.76;82.60;100578.28;5032956;28;19991;-50
2022/09/14 06:06:46;;;;;;;;;;;;;;;14.78;82.46;100578.94;5015067;28;19962;-50
2022/09/14 06:09:11;;;;;;;;;;;;;;;14.74;82.58;100581.09;5032250;28;20381;-48
2022/09/14 06:11:36;;;;;;;;;;;;;;;14.76;83.05;100587.13;5028119;28;20294;-48
2022/09/14 06:14:02;;;;;;;;;;;;;;;14.77;82.88;100587.94;5031036;28;19920;-49
2022/09/14 06:16:27;;;;;;;;;;;;;;;14.77;82.43;100590.63;5026994;28;19928;-50
2022/09/14 06:18:54;;;;;;;;;;;;;;;14.79;82.83;100591.34;5032500;28;20334;-50
2022/09/14 06:21:19;;;;;;;;;;;;;;;14.80;83.27;100588.50;5032370;28;20366;-50
2022/09/14 06:23:45;;;;;;;;;;;;;;;14.80;82.87;100595.66;5030670;28;19947;-51
2022/09/14 06:26:11;;;;;;;;;;;;;;;14.78;82.94;100586.97;5031337;28;20278;-50
2022/09/14 06:28:36;;;;;;;;;;;;;;;14.77;83.02;100594.16;5031079;28;19917;-48
2022/09/14 06:31:03;;;;;;;;;;;;;;;14.78;82.79;100590.47;5030304;28;19925;-50
2022/09/14 06:33:28;;;;;;;;;;;;;;;14.80;82.37;100584.97;5028373;28;20366;-49
2022/09/14 06:35:55;;;;;;;;;;;;;;;14.79;82.92;100578.81;5031293;28;19970;-49
2022/09/14 06:38:20;;;;;;;;;;;;;;;14.79;83.23;100588.66;5027559;28;19925;-49
2022/09/14 06:40:52;;;;;;;;;;;;;;;14.77;83.04;100578.13;5030354;28;20007;-47
2022/09/14 06:43:18;;;;;;;;;;;;;;;14.77;82.82;100577.25;5029446;28;19971;-50
2022/09/14 06:45:43;;;;;;;;;;;;;;;14.74;82.39;100577.59;5029459;28;19917;-51
2022/09/14 06:48:08;;;;;;;;;;;;;;;14.71;83.10;100575.22;5030877;28;20350;-48
2022/09/14 06:50:33;;;;;;;;;;;;;;;14.69;83.19;100570.00;5028063;28;19948;-50
2022/09/14 06:52:59;;;;;;;;;;;;;;;14.69;83.43;100570.00;5030497;28;20281;-48
2022/09/14 06:55:24;;;;;;;;;;;;;;;14.69;83.13;100567.34;5031444;28;19928;-48
2022/09/14 06:57:49;;;;;;;;;;;;;;;14.67;83.36;100563.13;5029683;28;21538;-46
2022/09/14 07:00:15;;;;;;;;;;;;;;;14.64;83.68;100566.09;5028958;28;19932;-48
2022/09/14 07:02:40;;;;;;;;;;;;;;;14.60;83.83;100558.41;5031221;28;19928;-50
2022/09/14 07:05:05;;;;;;;;;;;;;;;14.60;83.70;100557.53;5030455;28;19924;-47
2022/09/14 07:07:30;;;;;;;;;;;;;;;14.60;84.68;100552.19;5029644;28;19921;-46
2022/09/14 07:09:55;;;;;;;;;;;;;;;14.58;84.38;100549.63;5027693;28;20457;-47
2022/09/14 07:12:21;;;;;;;;;;;;;;;14.56;84.03;100548.94;5027461;28;20303;-47
2022/09/14 07:14:46;;;;;;;;;;;;;;;14.53;84.04;100546.56;5029083;28;20051;-47
2022/09/14 07:17:13;;;;;;;;;;;;;;;14.53;84.27;100551.91;5031177;28;19917;-47
2022/09/14 07:19:39;;;;;;;;;;;;;;;14.55;83.97;100547.25;5030721;28;20417;-47
2022/09/14 07:22:04;;;;;;;;;;;;;;;14.56;84.28;100548.13;5014568;28;19913;-48
2022/09/14 07:24:29;;;;;;;;;;;;;;;14.56;84.76;100545.44;5026785;28;19921;-47
2022/09/14 07:26:54;;;;;;;;;;;;;;;14.56;84.38;100548.94;5035216;28;19921;-47
2022/09/14 07:29:20;;;;;;;;;;;;;;;14.56;83.96;100540.09;5034151;28;19924;-47
2022/09/14 07:31:47;;;;;;;;;;;;;;;14.54;84.34;100542.94;5030970;28;19917;-48
2022/09/14 07:34:12;;;;;;;;;;;;;;;14.55;84.05;100549.94;5034516;28;19921;-47
2022/09/14 07:36:38;;;;;;;;;;;;;;;14.54;84.74;100552.78;5001347;28;19917;-47
2022/09/14 07:39:04;;;;;;;;;;;;;;;14.55;84.34;100551.78;5033738;28;19921;-50
2022/09/14 07:41:32;;;;;;;;;;;;;;;14.56;84.43;100550.78;5034200;28;19960;-47
2022/09/14 07:43:59;;;;;;;;;;;;;;;14.55;84.85;100549.94;5034485;28;19917;-50
2022/09/14 07:46:25;;;;;;;;;;;;;;;14.55;84.67;100541.09;5028120;28;19921;-48
2022/09/14 07:48:57;;;;;;;;;;;;;;;14.54;85.45;100542.09;5031338;28;19913;-50
2022/09/14 07:51:23;;;;;;;;;;;;;;;14.54;84.97;100540.25;5032816;28;19917;-52
2022/09/14 07:53:48;;;;;;;;;;;;;;;14.54;85.44;100547.44;5033595;28;19923;-48
2022/09/14 07:56:15;;;;;;;;;;;;;;;14.52;84.87;100547.59;5032661;28;20383;-46
2022/09/14 07:58:41;;;;;;;;;;;;;;;14.54;85.14;100544.75;5034542;28;19983;-47
2022/09/14 08:01:07;;;;;;;;;;;;;;;14.53;85.93;100543.06;5014706;28;20358;-47
2022/09/14 08:03:33;;;;;;;;;;;;;;;14.52;84.92;100539.56;5034513;28;19921;-49
2022/09/14 08:06:02;;;;;;;;;;;;;;;14.52;84.75;100539.56;5032491;28;19917;-48
2022/09/14 08:09:07;;;;;;;5.40;2.67;;;;;;;14.45;91.02;100541.13;5091163;27;20401;-50
2022/09/14 08:11:35;;;;;;;6.55;3.30;;;;;;;14.45;91.86;100543.81;5087168;28;20037;-49
2022/09/14 08:14:05;;;;;;;6.97;3.20;;;;;;;14.40;92.17;100540.75;5083004;28;20036;-48
2022/09/14 08:16:31;;;;;;;;;;;;;;;14.52;88.21;100542.25;5077756;28;20424;-48
2022/09/14 08:19:01;;;;;;;5.13;3.13;;;;;;;14.49;91.98;100541.69;5081009;28;19919;-50
2022/09/14 08:21:29;;;;;;;8.40;3.63;;;;;;;14.49;91.93;100536.34;5068099;28;20095;-51
2022/09/14 08:23:56;;;;;;;13.30;3.72;;;;;;;14.47;92.85;100531.16;5080724;28;20021;-48
2022/09/14 08:26:23;;;;;;;8.43;3.67;;;;;;;14.53;92.67;100541.22;5075735;28;20033;-50
2022/09/14 08:28:50;;;;;;;6.63;3.85;;;;;;;14.56;93.25;100540.09;5079480;28;20382;-48
2022/09/14 08:31:19;;;;;;;8.73;3.35;;;;;;;14.53;92.62;100543.06;5073271;28;20024;-47
2022/09/14 08:33:46;;;;;;;;;;;;;;;14.61;89.79;100546.69;5075627;28;20033;-48
2022/09/14 08:36:15;;;;;;;8.90;3.58;;;;;;;14.54;92.94;100544.75;5075972;28;19909;-48
2022/09/14 08:38:41;;;;;;;7.80;3.53;;;;;;;14.55;92.13;100547.25;5075724;28;20060;-47
2022/09/14 08:41:29;;;;;;;9.45;3.72;;;;;;;14.55;92.25;100544.59;5077188;28;20024;-48
2022/09/14 08:44:00;;;;;;;9.00;3.92;;;;;;;14.56;92.88;100553.47;5072597;28;20036;-48
2022/09/14 08:46:30;;;;;;;7.00;3.70;;;;;;;14.56;93.50;100548.94;5073422;28;20025;-48
2022/09/14 08:48:57;;;;;;;8.88;4.15;;;;;;;14.59;92.71;100550.53;5071850;28;20020;-49
2022/09/14 08:51:22;;;;;;;10.80;4.70;;;;;;;14.64;94.31;100558.94;5075195;28;20033;-48
2022/09/14 08:53:51;;;;;;;9.00;4.00;;;;;;;14.70;94.03;100547.63;5064298;28;20029;-48
2022/09/14 08:56:20;;;;;;;7.07;4.50;;;;;;;14.73;93.83;100550.00;5056753;28;20025;-48
2022/09/14 08:59:14;;;;;;;9.23;4.45;;;;;;;14.76;94.22;100551.53;5061378;28;20043;-48
2022/09/14 09:01:42;;;;;;;7.18;4.95;;;;;;;14.77;93.18;100550.53;5065332;28;20026;-47
2022/09/14 09:04:31;;;;;;;9.33;5.07;;;;;;;14.79;94.21;100551.22;5069038;28;20024;-47
2022/09/14 09:07:07;;;;;;;13.18;5.10;;;;;;;14.76;93.36;100547.00;5063459;28;20696;-46
2022/09/14 09:09:42;;;;;;;11.45;5.68;;;;;;;14.75;93.41;100545.31;5070383;28;20059;-48
2022/09/14 09:12:13;;;;;;;8.23;5.18;;;;;;;14.75;94.28;100555.19;5076729;28;20904;-47
2022/09/14 09:14:45;;;;;;;9.07;5.88;;;;;;;14.77;94.02;100550.53;5077471;28;20060;-47
2022/09/14 09:17:20;;;;;;;11.75;6.25;;;;;;;14.80;93.85;100550.22;5076069;28;20029;-47
2022/09/14 09:19:59;;;;;;;8.93;6.40;;;;;;;14.80;93.63;100551.09;5060708;28;20058;-47
2022/09/14 09:22:28;;;;;;;12.10;6.97;;;;;;;14.82;94.15;100540.22;5045623;28;20025;-49
2022/09/14 09:24:54;;;;;;;10.18;6.82;;;;;;;14.84;93.41;100546.25;5053819;28;20120;-46
2022/09/14 09:27:22;;;;;;;12.07;7.15;;;;;;;14.83;93.22;100539.22;5052106;28;20060;-50
2022/09/14 09:29:47;;;;;;;13.57;7.50;;;;;;;14.87;93.73;100545.09;5041331;28;20457;-49
2022/09/14 09:32:18;;;;;;;10.48;7.80;;;;;;;14.86;94.38;100541.59;5050990;28;20063;-63
2022/09/14 09:34:43;;;;;;;12.13;7.88;;;;;;;14.90;95.25;100536.78;5040508;28;20025;-62
2022/09/14 09:37:14;;;;;;;10.75;7.13;;;;;;;14.92;94.19;100537.47;5052121;28;20544;-62
2022/09/14 09:39:39;;;;;;;12.05;7.03;;;;;;;14.90;93.17;100532.25;5051931;28;20017;-61
2022/09/14 09:42:10;;;;;;;11.30;7.68;;;;;;;14.92;93.60;100540.13;5045827;28;20368;-63
2022/09/14 09:45:02;;;;;;;11.98;7.45;;;;;;;14.95;93.30;100546.03;5049939;28;20040;-58
2022/09/14 09:47:37;;;;;;;11.73;6.60;;;;;;;14.95;93.42;100545.19;5054462;28;20086;-58
2022/09/14 09:50:17;;;;;;;9.85;6.20;;;;;;;14.95;92.87;100543.38;5050191;28;20044;-58
2022/09/14 09:53:13;;;;;;;9.02;6.97;;;;;;;15.07;93.21;100543.09;5045394;28;20031;-57
2022/09/14 09:55:39;;;;;;;12.20;7.22;;;;;;;15.02;93.35;100540.91;5044369;28;20433;-57
2022/09/14 09:58:36;;;;;;;12.85;7.43;;;;;;;15.08;93.64;100542.94;5039082;28;20033;-57
2022/09/14 10:01:16;;;;;;;9.30;7.70;;;;;;;15.13;94.52;100542.50;5046707;28;20576;-57
2022/09/14 10:03:42;;;;;;;10.10;7.05;;;;;;;15.12;93.44;100532.78;5040061;28;20407;-58
2022/09/14 10:06:12;;;;;;;10.52;6.95;;;;;;;15.10;93.56;100543.63;5035455;28;20025;-56
2022/09/14 10:08:43;;;;;;;9.93;7.60;;;;;;;15.15;93.93;100545.84;5030517;28;20037;-56
2022/09/14 10:11:45;;;;;;;10.05;7.18;;;;;;;15.22;93.43;100546.94;5039670;28;20017;-57
2022/09/14 10:14:21;;;;;;;9.88;7.90;;;;;;;15.22;94.64;100546.94;5013726;28;20533;-59
2022/09/14 10:16:47;;;;;;;10.25;8.30;;;;;;;15.26;94.27;100544.78;5045055;28;20045;-56
2022/09/14 10:19:14;;;;;;;10.32;8.00;;;;;;;15.30;94.98;100540.78;5060998;28;20035;-57
2022/09/14 10:22:15;;;;;;;10.27;7.05;;;;;;;15.40;94.56;100548.72;5049124;28;20029;-57
2022/09/14 10:24:52;;;;;;;12.10;6.70;;;;;;;15.39;93.90;100539.00;5046725;28;20036;-57
2022/09/14 10:27:47;;;;;;;11.32;7.70;;;;;;;15.38;95.73;100527.47;5041209;28;20033;-56
2022/09/14 10:30:21;;;;;;;11.00;7.30;;;;;;;15.40;93.96;100533.50;5043680;28;20052;-57
2022/09/14 10:33:00;;;;;;;11.48;7.90;;;;;;;15.50;93.77;100539.59;5048769;28;20493;-56
2022/09/14 10:35:48;;;;;;;12.27;6.43;;;;;;;15.49;92.44;100539.75;5042305;28;20556;-57
2022/09/14 10:38:29;;;;;;;9.95;6.22;;;;;;;15.47;91.77;100536.38;5052706;28;20048;-57
2022/09/14 10:41:12;;;;;;;10.30;6.95;;;;;;;15.52;92.17;100537.59;5051355;28;20044;-58
2022/09/14 10:43:55;;;;;;;10.32;6.63;;;;;;;15.53;92.29;100533.91;5045326;28;20147;-58
2022/09/14 10:46:41;;;;;;;10.00;6.20;;;;;;;15.46;91.44;100534.72;5038181;28;20030;-57
2022/09/14 10:49:26;;;;;;;9.65;6.72;;;;;;;15.49;91.78;100529.88;5071231;28;20143;-58
2022/09/14 10:52:26;;;;;;;13.13;6.30;;;;;;;15.52;91.09;100539.44;5052079;28;20514;-57
2022/09/14 10:55:02;;;;;;;7.43;5.90;;;;;;;15.48;91.27;100538.91;5047611;28;20037;-59
2022/09/14 10:57:42;;;;;;;8.73;5.93;;;;;;;15.52;90.76;100542.09;5053393;28;20060;-59
2022/09/14 11:00:20;;;;;;;9.27;6.88;;;;;;;15.55;92.69;100541.78;5050923;28;20033;-59
2022/09/14 11:03:01;;;;;;;10.33;7.10;;;;;;;15.58;92.58;100543.31;5032894;28;20033;-57
2022/09/14 11:05:33;;;;;;;8.80;6.38;;;;;;;15.56;92.03;100539.97;5059204;28;20041;-56
2022/09/14 11:08:10;;;;;;;11.20;7.45;;;;;;;15.63;94.18;100530.31;5031018;28;20065;-57
2022/09/14 11:10:51;;;;;;;9.80;6.97;;;;;;;15.59;91.89;100526.25;5040278;28;20131;-57
2022/09/14 11:13:28;;;;;;;7.22;5.80;;;;;;;15.62;90.87;100529.47;5043476;28;20029;-57
2022/09/14 11:16:09;;;;;;;6.97;4.93;;;;;;;15.59;88.76;100528.94;5032730;28;20099;-56
2022/09/14 11:19:09;;;;;;;6.15;4.70;;;;;;;15.57;88.85;100523.75;5033633;28;20083;-55
2022/09/14 11:21:46;;;;;;;7.97;5.00;;;;;;;15.52;88.53;100518.00;5038326;28;20034;-58
2022/09/14 11:24:23;;;;;;;7.18;4.72;;;;;;;15.53;88.50;100519.69;5044692;28;20037;-57
2022/09/14 11:27:08;;;;;;;6.65;4.40;;;;;;;15.51;87.99;100519.84;5039967;28;20037;-58
2022/09/14 11:29:37;;;;;;;9.63;4.30;;;;;;;15.49;87.09;100521.03;5051304;28;20116;-58
2022/09/14 11:32:20;;;;;;;6.10;3.78;;;;;;;15.49;86.77;100513.00;5058856;28;20066;-54
2022/09/14 11:34:54;;;;;;;7.97;5.00;;;;;;;15.47;89.01;100518.50;5050821;28;20036;-60
2022/09/14 11:37:27;;;;;;;4.95;3.83;;;;;;;15.45;88.04;100512.44;5063994;28;20021;-57
2022/09/14 11:40:14;;;;;;;5.93;4.20;;;;;;;15.48;89.08;100520.16;5063071;28;20032;-60
2022/09/14 11:42:43;;;;;;;5.97;3.90;;;;;;;15.39;88.83;100498.84;5047223;28;20032;-60
2022/09/14 11:45:18;;;;;;;8.45;4.32;;;;;;;15.42;87.64;100512.78;5047206;28;20103;-60
2022/09/14 11:47:53;;;;;;;5.00;4.10;;;;;;;15.41;88.28;100502.25;5060259;28;20485;-60
2022/09/14 11:50:22;;;;;;;5.03;3.90;;;;;;;15.36;88.66;100508.88;5063559;28;20025;-61
2022/09/14 11:53:01;;;;;;;5.65;3.42;;;;;;;15.34;87.02;100507.38;5055997;28;20028;-60
2022/09/14 11:55:26;;;;;;;4.13;2.60;;;;;;;15.29;85.85;100515.03;5064323;28;20080;-60
2022/09/14 11:57:52;;;;;;;3.50;2.22;;;;;;;15.21;84.68;100518.50;5061981;28;20419;-60
2022/09/14 12:00:21;;;;;;;4.93;2.95;;;;;;;15.22;86.14;100519.31;5065079;28;20398;-59
2022/09/14 12:03:20;;;;;;;7.28;2.78;;;;;;;15.25;86.68;100525.19;5071642;28;20158;-60
2022/09/14 12:05:47;;;;;;;4.32;1.98;;;;;;;15.16;86.09;100518.94;5036624;28;20041;-60
2022/09/14 12:08:29;;;;;;;6.05;2.50;;;;;;;15.13;85.81;100515.75;5068257;28;20048;-60
2022/09/14 12:11:25;;;;;;;4.80;2.25;;;;;;;15.13;87.27;100516.56;5053215;28;20033;-60
2022/09/14 12:14:13;;;;;;;6.30;2.67;;;;;;;15.09;87.98;100525.09;5062331;28;20044;-59
2022/09/14 12:17:16;;;;;;;7.85;2.47;;;;;;;15.12;89.49;100527.44;5054355;28;20037;-58
2022/09/14 12:19:43;;;;;;;4.30;2.70;;;;;;;15.09;92.14;100525.09;5064776;28;20440;-57
2022/09/14 12:22:29;;;;;;;4.35;2.97;;;;;;;15.10;90.14;100516.88;5063036;28;20036;-58
2022/09/14 12:25:15;;;;;;;5.88;2.88;;;;;;;15.04;88.99;100505.97;5063658;28;20029;-59
2022/09/14 12:27:41;;;;;;;8.30;3.25;;;;;;;15.11;88.94;100507.88;5052330;28;20075;-59